RYR21WJ EIDW-EGCC
Flight info
| Callsign | RYR21WJ |
|---|---|
| Flight time | 0h 37m |
| Altitude | 21000 |
| Route | BOFUM3J BOFUM Q37 MALUD |
| Aircraft | B738/M-SDE2E3FGHIRWXY/LB1 |
Departure
| Time | 2026-05-06 21:38 |
|---|---|
| Airport | Dublin Airport (EIDW) |
Arrival
| Time | 2026-05-06 22:15 |
|---|---|
| Airport | Manchester Airport (EGCC) |
| Time | Latitude | Longitude | Altitude | Speed | Heading |
|---|---|---|---|---|---|
| 2026-05-06 21:08 | 53.42553 | -6.24620 | 224 ft | 0 kts | 19° |
| 2026-05-06 21:23 | 53.42548 | -6.24623 | 224 ft | 2 kts | 19° |
| 2026-05-06 21:24 | 53.42530 | -6.24633 | 227 ft | 3 kts | 15° |
| 2026-05-06 21:24 | 53.42510 | -6.24641 | 224 ft | 3 kts | 11° |
| 2026-05-06 21:24 | 53.42490 | -6.24647 | 227 ft | 3 kts | 5° |
| 2026-05-06 21:24 | 53.42470 | -6.24649 | 225 ft | 3 kts | 358° |
| 2026-05-06 21:25 | 53.42450 | -6.24645 | 225 ft | 3 kts | 343° |
| 2026-05-06 21:25 | 53.42433 | -6.24633 | 227 ft | 3 kts | 308° |
| 2026-05-06 21:25 | 53.42428 | -6.24618 | 226 ft | 1 kts | 248° |
| 2026-05-06 21:25 | 53.42428 | -6.24615 | 225 ft | 0 kts | 243° |
| 2026-05-06 21:30 | 53.42420 | -6.24646 | 226 ft | 6 kts | 250° |
| 2026-05-06 21:30 | 53.42438 | -6.24745 | 224 ft | 12 kts | 319° |
| 2026-05-06 21:31 | 53.42529 | -6.24815 | 224 ft | 11 kts | 338° |
| 2026-05-06 21:31 | 53.42556 | -6.24920 | 224 ft | 11 kts | 250° |
| 2026-05-06 21:31 | 53.42587 | -6.25023 | 224 ft | 11 kts | 333° |
| 2026-05-06 21:31 | 53.42657 | -6.25074 | 224 ft | 11 kts | 336° |
| 2026-05-06 21:32 | 53.42714 | -6.25147 | 224 ft | 11 kts | 297° |
| 2026-05-06 21:32 | 53.42837 | -6.25272 | 224 ft | 12 kts | 336° |
| 2026-05-06 21:32 | 53.42938 | -6.25357 | 224 ft | 21 kts | 327° |
| 2026-05-06 21:33 | 53.43073 | -6.25461 | 226 ft | 21 kts | 336° |
| 2026-05-06 21:33 | 53.43207 | -6.25558 | 224 ft | 21 kts | 336° |
| 2026-05-06 21:33 | 53.43329 | -6.25630 | 224 ft | 14 kts | 337° |
| 2026-05-06 21:33 | 53.43404 | -6.25614 | 224 ft | 12 kts | 62° |
| 2026-05-06 21:34 | 53.43404 | -6.25474 | 224 ft | 12 kts | 95° |
| 2026-05-06 21:34 | 53.43396 | -6.25336 | 224 ft | 12 kts | 95° |
| 2026-05-06 21:34 | 53.43388 | -6.25187 | 224 ft | 14 kts | 94° |
| 2026-05-06 21:34 | 53.43378 | -6.24993 | 224 ft | 21 kts | 95° |
| 2026-05-06 21:35 | 53.43362 | -6.24727 | 224 ft | 23 kts | 95° |
| 2026-05-06 21:35 | 53.43349 | -6.24464 | 224 ft | 22 kts | 95° |
| 2026-05-06 21:35 | 53.43334 | -6.24208 | 223 ft | 22 kts | 95° |
| 2026-05-06 21:35 | 53.43321 | -6.23978 | 223 ft | 15 kts | 95° |
| 2026-05-06 21:36 | 53.43355 | -6.23861 | 223 ft | 12 kts | 12° |
| 2026-05-06 21:36 | 53.43445 | -6.23845 | 224 ft | 14 kts | 359° |
| 2026-05-06 21:36 | 53.43485 | -6.23872 | 216 ft | 0 kts | 283° |
| 2026-05-06 21:37 | 53.43487 | -6.23893 | 214 ft | 7 kts | 278° |
| 2026-05-06 21:37 | 53.43508 | -6.24256 | 219 ft | 76 kts | 275° |
| 2026-05-06 21:38 | 53.43582 | -6.25673 | 237 ft | 164 kts | 274° |
| 2026-05-06 21:38 | 53.43699 | -6.27807 | 885 ft | 201 kts | 274° |
| 2026-05-06 21:38 | 53.43845 | -6.30283 | 1737 ft | 226 kts | 274° |
| 2026-05-06 21:38 | 53.44014 | -6.33029 | 2600 ft | 244 kts | 274° |
| 2026-05-06 21:39 | 53.44186 | -6.35837 | 3620 ft | 243 kts | 275° |
| 2026-05-06 21:39 | 53.44444 | -6.38584 | 4741 ft | 235 kts | 288° |
| 2026-05-06 21:39 | 53.45302 | -6.40746 | 6020 ft | 218 kts | 320° |
| 2026-05-06 21:39 | 53.46738 | -6.41692 | 6673 ft | 236 kts | 351° |
| 2026-05-06 21:40 | 53.48457 | -6.41439 | 7039 ft | 261 kts | 14° |
| 2026-05-06 21:40 | 53.50151 | -6.40142 | 7609 ft | 275 kts | 34° |
| 2026-05-06 21:40 | 53.51575 | -6.37908 | 8165 ft | 289 kts | 51° |
| 2026-05-06 21:40 | 53.52643 | -6.34966 | 8688 ft | 301 kts | 69° |
| 2026-05-06 21:41 | 53.53153 | -6.31612 | 9275 ft | 294 kts | 83° |
| 2026-05-06 21:41 | 53.53308 | -6.28248 | 9784 ft | 292 kts | 91° |
| 2026-05-06 21:41 | 53.53196 | -6.24843 | 10278 ft | 293 kts | 98° |
| 2026-05-06 21:41 | 53.52908 | -6.21432 | 10829 ft | 297 kts | 100° |
| 2026-05-06 21:42 | 53.52575 | -6.17975 | 11354 ft | 302 kts | 101° |
| 2026-05-06 21:42 | 53.52246 | -6.14457 | 11809 ft | 308 kts | 99° |
| 2026-05-06 21:42 | 53.51976 | -6.10863 | 12323 ft | 310 kts | 98° |
| 2026-05-06 21:42 | 53.51701 | -6.07274 | 12912 ft | 310 kts | 98° |
| 2026-05-06 21:43 | 53.51414 | -6.03598 | 13195 ft | 330 kts | 99° |
| 2026-05-06 21:43 | 53.51031 | -5.99668 | 13492 ft | 350 kts | 102° |
| 2026-05-06 21:43 | 53.50537 | -5.95660 | 14072 ft | 359 kts | 104° |
| 2026-05-06 21:43 | 53.49965 | -5.91556 | 14817 ft | 362 kts | 105° |
| 2026-05-06 21:44 | 53.49367 | -5.87431 | 15602 ft | 365 kts | 104° |
| 2026-05-06 21:44 | 53.49054 | -5.83187 | 16329 ft | 371 kts | 85° |
| 2026-05-06 21:44 | 53.49550 | -5.78958 | 17271 ft | 368 kts | 76° |
| 2026-05-06 21:44 | 53.50168 | -5.74797 | 18271 ft | 365 kts | 75° |
| 2026-05-06 21:45 | 53.50785 | -5.70675 | 19122 ft | 363 kts | 75° |
| 2026-05-06 21:45 | 53.51386 | -5.66578 | 19985 ft | 360 kts | 75° |
| 2026-05-06 21:45 | 53.51972 | -5.62493 | 20655 ft | 361 kts | 75° |
| 2026-05-06 21:45 | 53.52542 | -5.58459 | 20970 ft | 358 kts | 75° |
| 2026-05-06 21:46 | 53.53116 | -5.54361 | 20981 ft | 360 kts | 75° |
| 2026-05-06 21:46 | 53.53668 | -5.50269 | 20992 ft | 358 kts | 79° |
| 2026-05-06 21:46 | 53.53781 | -5.46096 | 21007 ft | 358 kts | 91° |
| 2026-05-06 21:46 | 53.53648 | -5.41919 | 20996 ft | 358 kts | 92° |
| 2026-05-06 21:47 | 53.53493 | -5.37746 | 20997 ft | 358 kts | 92° |
| 2026-05-06 21:47 | 53.53350 | -5.33575 | 20998 ft | 358 kts | 92° |
| 2026-05-06 21:47 | 53.53224 | -5.29398 | 20998 ft | 358 kts | 92° |
| 2026-05-06 21:47 | 53.53114 | -5.25272 | 20998 ft | 358 kts | 91° |
| 2026-05-06 21:48 | 53.53006 | -5.21087 | 20999 ft | 359 kts | 91° |
| 2026-05-06 21:48 | 53.52897 | -5.16894 | 20998 ft | 359 kts | 91° |
| 2026-05-06 21:48 | 53.52780 | -5.12691 | 20995 ft | 360 kts | 92° |
| 2026-05-06 21:48 | 53.52649 | -5.08488 | 20995 ft | 360 kts | 92° |
| 2026-05-06 21:49 | 53.52514 | -5.04286 | 20996 ft | 361 kts | 92° |
| 2026-05-06 21:49 | 53.52378 | -5.00076 | 20995 ft | 361 kts | 92° |
| 2026-05-06 21:49 | 53.52243 | -4.95866 | 21000 ft | 361 kts | 92° |
| 2026-05-06 21:49 | 53.52107 | -4.91651 | 21000 ft | 361 kts | 92° |
| 2026-05-06 21:50 | 53.51971 | -4.87492 | 20999 ft | 361 kts | 92° |
| 2026-05-06 21:50 | 53.51832 | -4.83282 | 20999 ft | 361 kts | 92° |
| 2026-05-06 21:50 | 53.51692 | -4.79075 | 21000 ft | 361 kts | 92° |
| 2026-05-06 21:50 | 53.51551 | -4.74865 | 21000 ft | 361 kts | 92° |
| 2026-05-06 21:51 | 53.51408 | -4.70657 | 21000 ft | 361 kts | 92° |
| 2026-05-06 21:51 | 53.51265 | -4.66453 | 20999 ft | 360 kts | 92° |
| 2026-05-06 21:51 | 53.51120 | -4.62252 | 21003 ft | 360 kts | 92° |
| 2026-05-06 21:51 | 53.50974 | -4.58050 | 21000 ft | 360 kts | 92° |
| 2026-05-06 21:52 | 53.50826 | -4.53855 | 20999 ft | 360 kts | 92° |
| 2026-05-06 21:52 | 53.50679 | -4.49718 | 21000 ft | 360 kts | 92° |
| 2026-05-06 21:52 | 53.50529 | -4.45529 | 21000 ft | 359 kts | 92° |
| 2026-05-06 21:52 | 53.50377 | -4.41337 | 21000 ft | 359 kts | 92° |
| 2026-05-06 21:53 | 53.50243 | -4.37648 | 20998 ft | 359 kts | 92° |
| 2026-05-06 21:53 | 53.50178 | -4.35886 | 20998 ft | 359 kts | 92° |
| 2026-05-06 21:53 | 53.50023 | -4.31703 | 21003 ft | 359 kts | 93° |
| 2026-05-06 21:53 | 53.49867 | -4.27517 | 21003 ft | 359 kts | 93° |
| 2026-05-06 21:54 | 53.49709 | -4.23336 | 21003 ft | 359 kts | 93° |
| 2026-05-06 21:54 | 53.49550 | -4.19150 | 21003 ft | 359 kts | 93° |
| 2026-05-06 21:54 | 53.49392 | -4.15025 | 21003 ft | 359 kts | 93° |
| 2026-05-06 21:54 | 53.49231 | -4.10859 | 20994 ft | 354 kts | 93° |
| 2026-05-06 21:55 | 53.49072 | -4.06774 | 20826 ft | 349 kts | 93° |
| 2026-05-06 21:55 | 53.48912 | -4.02730 | 20606 ft | 345 kts | 93° |
| 2026-05-06 21:55 | 53.48752 | -3.98714 | 20269 ft | 344 kts | 94° |
| 2026-05-06 21:55 | 53.48416 | -3.94766 | 19945 ft | 341 kts | 105° |
| 2026-05-06 21:56 | 53.47682 | -3.90997 | 19648 ft | 339 kts | 110° |
| 2026-05-06 21:56 | 53.46890 | -3.87286 | 19327 ft | 337 kts | 110° |
| 2026-05-06 21:56 | 53.46096 | -3.83586 | 19011 ft | 337 kts | 110° |
| 2026-05-06 21:56 | 53.45322 | -3.79938 | 18693 ft | 336 kts | 110° |
| 2026-05-06 21:57 | 53.44548 | -3.76247 | 18374 ft | 335 kts | 110° |
| 2026-05-06 21:57 | 53.43781 | -3.72568 | 18017 ft | 334 kts | 110° |
| 2026-05-06 21:57 | 53.43015 | -3.68886 | 17668 ft | 333 kts | 110° |
| 2026-05-06 21:57 | 53.42252 | -3.65225 | 17332 ft | 332 kts | 110° |
| 2026-05-06 21:58 | 53.41497 | -3.61585 | 17008 ft | 330 kts | 108° |
| 2026-05-06 21:58 | 53.41058 | -3.57811 | 16617 ft | 331 kts | 95° |
| 2026-05-06 21:58 | 53.40907 | -3.53961 | 16241 ft | 332 kts | 93° |
| 2026-05-06 21:58 | 53.40783 | -3.50100 | 15844 ft | 333 kts | 93° |
| 2026-05-06 21:59 | 53.40649 | -3.46220 | 15445 ft | 334 kts | 94° |
| 2026-05-06 21:59 | 53.40500 | -3.42329 | 15050 ft | 335 kts | 94° |
| 2026-05-06 21:59 | 53.40340 | -3.38480 | 14659 ft | 336 kts | 94° |
| 2026-05-06 21:59 | 53.40169 | -3.34572 | 14266 ft | 337 kts | 94° |
| 2026-05-06 22:00 | 53.39992 | -3.30654 | 13868 ft | 338 kts | 95° |
| 2026-05-06 22:00 | 53.39813 | -3.26720 | 13430 ft | 339 kts | 95° |
| 2026-05-06 22:00 | 53.39631 | -3.22785 | 13002 ft | 339 kts | 95° |
| 2026-05-06 22:00 | 53.39448 | -3.18850 | 12588 ft | 339 kts | 95° |
| 2026-05-06 22:01 | 53.39328 | -3.14918 | 12173 ft | 338 kts | 85° |
| 2026-05-06 22:01 | 53.39939 | -3.11150 | 11824 ft | 334 kts | 64° |
| 2026-05-06 22:01 | 53.41040 | -3.07732 | 11418 ft | 333 kts | 58° |
| 2026-05-06 22:01 | 53.42208 | -3.04445 | 11009 ft | 333 kts | 57° |
| 2026-05-06 22:02 | 53.43404 | -3.01124 | 10616 ft | 332 kts | 57° |
| 2026-05-06 22:02 | 53.44590 | -2.97799 | 10198 ft | 332 kts | 57° |
| 2026-05-06 22:02 | 53.45762 | -2.94472 | 9922 ft | 327 kts | 58° |
| 2026-05-06 22:02 | 53.46884 | -2.91250 | 9930 ft | 313 kts | 58° |
| 2026-05-06 22:03 | 53.47961 | -2.88140 | 9865 ft | 303 kts | 58° |
| 2026-05-06 22:03 | 53.49002 | -2.85126 | 9793 ft | 294 kts | 58° |
| 2026-05-06 22:03 | 53.50008 | -2.82207 | 9695 ft | 283 kts | 58° |
| 2026-05-06 22:03 | 53.50988 | -2.79360 | 9280 ft | 281 kts | 58° |
| 2026-05-06 22:04 | 53.51955 | -2.76548 | 8763 ft | 283 kts | 58° |
| 2026-05-06 22:04 | 53.52936 | -2.73690 | 8309 ft | 282 kts | 58° |
| 2026-05-06 22:04 | 53.53659 | -2.70649 | 7818 ft | 284 kts | 83° |
| 2026-05-06 22:04 | 53.53594 | -2.67358 | 7402 ft | 281 kts | 96° |
| 2026-05-06 22:05 | 53.53367 | -2.64110 | 7029 ft | 277 kts | 97° |
| 2026-05-06 22:05 | 53.53129 | -2.60938 | 6781 ft | 270 kts | 98° |
| 2026-05-06 22:05 | 53.52897 | -2.57848 | 6515 ft | 264 kts | 97° |
| 2026-05-06 22:05 | 53.52672 | -2.54826 | 6247 ft | 257 kts | 96° |
| 2026-05-06 22:06 | 53.52459 | -2.51918 | 5975 ft | 252 kts | 96° |
| 2026-05-06 22:06 | 53.52250 | -2.49045 | 5703 ft | 247 kts | 97° |
| 2026-05-06 22:06 | 53.52045 | -2.46208 | 5434 ft | 243 kts | 97° |
| 2026-05-06 22:06 | 53.51844 | -2.43421 | 5181 ft | 238 kts | 97° |
| 2026-05-06 22:07 | 53.51646 | -2.40692 | 4921 ft | 233 kts | 97° |
| 2026-05-06 22:07 | 53.51453 | -2.38015 | 4672 ft | 228 kts | 97° |
| 2026-05-06 22:07 | 53.51264 | -2.35399 | 4440 ft | 222 kts | 98° |
| 2026-05-06 22:07 | 53.51080 | -2.32864 | 4253 ft | 215 kts | 98° |
| 2026-05-06 22:08 | 53.50906 | -2.30457 | 4073 ft | 203 kts | 98° |
| 2026-05-06 22:08 | 53.50739 | -2.28177 | 3861 ft | 195 kts | 98° |
| 2026-05-06 22:08 | 53.50577 | -2.25955 | 3674 ft | 189 kts | 98° |
| 2026-05-06 22:08 | 53.50420 | -2.23801 | 3603 ft | 181 kts | 99° |
| 2026-05-06 22:09 | 53.50271 | -2.21763 | 3564 ft | 172 kts | 98° |
| 2026-05-06 22:09 | 53.50125 | -2.19790 | 3571 ft | 172 kts | 98° |
| 2026-05-06 22:09 | 53.49977 | -2.17776 | 3574 ft | 174 kts | 98° |
| 2026-05-06 22:09 | 53.49828 | -2.15761 | 3562 ft | 173 kts | 99° |
| 2026-05-06 22:10 | 53.49680 | -2.13762 | 3551 ft | 172 kts | 99° |
| 2026-05-06 22:10 | 53.49532 | -2.11778 | 3548 ft | 171 kts | 99° |
| 2026-05-06 22:10 | 53.49385 | -2.09805 | 3551 ft | 170 kts | 99° |
| 2026-05-06 22:10 | 53.49240 | -2.07868 | 3553 ft | 170 kts | 99° |
| 2026-05-06 22:11 | 53.49070 | -2.05907 | 3564 ft | 169 kts | 107° |
| 2026-05-06 22:11 | 53.48336 | -2.04465 | 3564 ft | 168 kts | 158° |
| 2026-05-06 22:11 | 53.47204 | -2.04611 | 3555 ft | 173 kts | 211° |
| 2026-05-06 22:11 | 53.46251 | -2.05927 | 3414 ft | 183 kts | 220° |
| 2026-05-06 22:12 | 53.45337 | -2.07397 | 3135 ft | 177 kts | 223° |
| 2026-05-06 22:12 | 53.44526 | -2.08879 | 2848 ft | 170 kts | 228° |
| 2026-05-06 22:12 | 53.43796 | -2.10392 | 2538 ft | 164 kts | 229° |
| 2026-05-06 22:12 | 53.43110 | -2.11882 | 2269 ft | 165 kts | 228° |
| 2026-05-06 22:13 | 53.42347 | -2.13426 | 2031 ft | 178 kts | 224° |
| 2026-05-06 22:13 | 53.41552 | -2.14952 | 1853 ft | 169 kts | 225° |
| 2026-05-06 22:13 | 53.40800 | -2.16446 | 1680 ft | 167 kts | 225° |
| 2026-05-06 22:13 | 53.40056 | -2.17913 | 1471 ft | 164 kts | 225° |
| 2026-05-06 22:14 | 53.39316 | -2.19375 | 1277 ft | 161 kts | 226° |
| 2026-05-06 22:14 | 53.38635 | -2.20794 | 1031 ft | 158 kts | 227° |
| 2026-05-06 22:14 | 53.37940 | -2.22218 | 821 ft | 158 kts | 228° |
| 2026-05-06 22:14 | 53.37241 | -2.23632 | 644 ft | 154 kts | 229° |
| 2026-05-06 22:15 | 53.36575 | -2.24995 | 433 ft | 150 kts | 230° |
| 2026-05-06 22:15 | 53.35954 | -2.26281 | 266 ft | 140 kts | 231° |
| 2026-05-06 22:15 | 53.35423 | -2.27395 | 259 ft | 95 kts | 231° |
| 2026-05-06 22:15 | 53.35118 | -2.28025 | 238 ft | 48 kts | 231° |
| 2026-05-06 22:16 | 53.35003 | -2.28292 | 235 ft | 21 kts | 244° |
| 2026-05-06 22:16 | 53.34955 | -2.28521 | 234 ft | 15 kts | 259° |
| 2026-05-06 22:16 | 53.34942 | -2.28672 | 231 ft | 11 kts | 279° |
| 2026-05-06 22:16 | 53.34995 | -2.28749 | 230 ft | 11 kts | 360° |
| 2026-05-06 22:17 | 53.35052 | -2.28670 | 231 ft | 11 kts | 49° |
| 2026-05-06 22:17 | 53.35100 | -2.28574 | 231 ft | 11 kts | 51° |
| 2026-05-06 22:17 | 53.35151 | -2.28467 | 230 ft | 12 kts | 51° |
| 2026-05-06 22:17 | 53.35203 | -2.28359 | 232 ft | 12 kts | 51° |
| 2026-05-06 22:18 | 53.35255 | -2.28254 | 235 ft | 11 kts | 50° |
| 2026-05-06 22:18 | 53.35309 | -2.28158 | 237 ft | 11 kts | 45° |
| 2026-05-06 22:18 | 53.35364 | -2.28070 | 240 ft | 11 kts | 43° |
| 2026-05-06 22:18 | 53.35418 | -2.27983 | 242 ft | 11 kts | 44° |
| 2026-05-06 22:19 | 53.35456 | -2.27883 | 246 ft | 10 kts | 82° |
| 2026-05-06 22:19 | 53.35470 | -2.27767 | 248 ft | 11 kts | 57° |
| 2026-05-06 22:19 | 53.35526 | -2.27649 | 247 ft | 15 kts | 51° |
| 2026-05-06 22:19 | 53.35595 | -2.27507 | 251 ft | 16 kts | 51° |
| 2026-05-06 22:20 | 53.35666 | -2.27360 | 252 ft | 18 kts | 51° |
| 2026-05-06 22:20 | 53.35734 | -2.27220 | 252 ft | 16 kts | 51° |
| 2026-05-06 22:20 | 53.35804 | -2.27071 | 251 ft | 16 kts | 55° |
| 2026-05-06 22:20 | 53.35857 | -2.26930 | 253 ft | 13 kts | 52° |
| 2026-05-06 22:21 | 53.35897 | -2.26845 | 253 ft | 5 kts | 46° |
| 2026-05-06 22:21 | 53.35942 | -2.26841 | 248 ft | 10 kts | 342° |
| 2026-05-06 22:21 | 53.36004 | -2.26794 | 247 ft | 10 kts | 49° |
| 2026-05-06 22:21 | 53.36048 | -2.26732 | 247 ft | 6 kts | 349° |
| 2026-05-06 22:22 | 53.36077 | -2.26775 | 247 ft | 6 kts | 313° |
| 2026-05-06 22:22 | 53.36089 | -2.26795 | 247 ft | 0 kts | 314° |